sensor_id;sensor_type;location;lat;lon;timestamp;temperature;humidity
18225;DHT22;9237;48.590;8.854;2022-09-09T00:00:17;11.80;99.90
18225;DHT22;9237;48.590;8.854;2022-09-09T00:02:48;11.90;99.90
18225;DHT22;9237;48.590;8.854;2022-09-09T00:05:25;11.90;99.90
18225;DHT22;9237;48.590;8.854;2022-09-09T00:07:55;12.00;99.90
18225;DHT22;9237;48.590;8.854;2022-09-09T00:10:28;12.00;99.90
18225;DHT22;9237;48.590;8.854;2022-09-09T00:13:04;12.20;99.90
18225;DHT22;9237;48.590;8.854;2022-09-09T00:15:37;12.30;99.90
18225;DHT22;9237;48.590;8.854;2022-09-09T00:18:14;12.40;99.90
18225;DHT22;9237;48.590;8.854;2022-09-09T00:20:48;12.40;99.90
18225;DHT22;9237;48.590;8.854;2022-09-09T00:23:22;12.40;99.90
18225;DHT22;9237;48.590;8.854;2022-09-09T00:25:57;12.50;99.90
18225;DHT22;9237;48.590;8.854;2022-09-09T00:28:26;12.50;99.90
18225;DHT22;9237;48.590;8.854;2022-09-09T00:30:56;12.50;99.90
18225;DHT22;9237;48.590;8.854;2022-09-09T00:33:26;12.50;99.90
18225;DHT22;9237;48.590;8.854;2022-09-09T00:35:57;12.50;99.90
18225;DHT22;9237;48.590;8.854;2022-09-09T00:38:28;12.50;99.90
18225;DHT22;9237;48.590;8.854;2022-09-09T00:41:03;12.40;99.90
18225;DHT22;9237;48.590;8.854;2022-09-09T00:43:36;12.40;99.90
18225;DHT22;9237;48.590;8.854;2022-09-09T00:46:38;12.40;99.90
18225;DHT22;9237;48.590;8.854;2022-09-09T00:49:19;12.40;99.90
18225;DHT22;9237;48.590;8.854;2022-09-09T00:51:59;12.40;99.90
18225;DHT22;9237;48.590;8.854;2022-09-09T00:54:36;12.30;99.90
18225;DHT22;9237;48.590;8.854;2022-09-09T00:57:13;12.30;99.90
18225;DHT22;9237;48.590;8.854;2022-09-09T00:59:47;12.40;99.90
18225;DHT22;9237;48.590;8.854;2022-09-09T01:02:24;12.40;99.90
18225;DHT22;9237;48.590;8.854;2022-09-09T01:04:53;12.40;99.90
18225;DHT22;9237;48.590;8.854;2022-09-09T01:07:23;12.50;99.90
18225;DHT22;9237;48.590;8.854;2022-09-09T01:09:55;12.60;99.90
18225;DHT22;9237;48.590;8.854;2022-09-09T01:12:36;12.50;99.90
18225;DHT22;9237;48.590;8.854;2022-09-09T01:15:10;12.40;99.90
18225;DHT22;9237;48.590;8.854;2022-09-09T01:17:49;12.40;99.90
18225;DHT22;9237;48.590;8.854;2022-09-09T01:20:20;12.40;99.90
18225;DHT22;9237;48.590;8.854;2022-09-09T01:26:10;12.50;99.90
18225;DHT22;9237;48.590;8.854;2022-09-09T01:28:40;12.50;99.90
18225;DHT22;9237;48.590;8.854;2022-09-09T01:31:09;12.40;99.90
18225;DHT22;9237;48.590;8.854;2022-09-09T01:33:37;12.40;99.90
18225;DHT22;9237;48.590;8.854;2022-09-09T01:36:07;12.30;99.90
18225;DHT22;9237;48.590;8.854;2022-09-09T01:38:35;12.30;99.90
18225;DHT22;9237;48.590;8.854;2022-09-09T01:41:03;12.20;99.90
18225;DHT22;9237;48.590;8.854;2022-09-09T01:43:31;12.00;99.90
18225;DHT22;9237;48.590;8.854;2022-09-09T01:46:00;11.90;99.90
18225;DHT22;9237;48.590;8.854;2022-09-09T01:48:28;11.80;99.90
18225;DHT22;9237;48.590;8.854;2022-09-09T01:50:55;11.70;99.90
18225;DHT22;9237;48.590;8.854;2022-09-09T01:53:22;11.70;99.90
18225;DHT22;9237;48.590;8.854;2022-09-09T01:55:57;11.70;99.90
18225;DHT22;9237;48.590;8.854;2022-09-09T01:58:37;11.70;99.90
18225;DHT22;9237;48.590;8.854;2022-09-09T02:01:17;11.70;99.90
18225;DHT22;9237;48.590;8.854;2022-09-09T02:03:52;11.90;99.90
18225;DHT22;9237;48.590;8.854;2022-09-09T02:06:27;11.90;99.90
18225;DHT22;9237;48.590;8.854;2022-09-09T02:08:56;11.80;99.90
18225;DHT22;9237;48.590;8.854;2022-09-09T02:11:26;11.70;99.90
18225;DHT22;9237;48.590;8.854;2022-09-09T02:13:57;11.60;99.90
18225;DHT22;9237;48.590;8.854;2022-09-09T02:16:27;11.50;99.90
18225;DHT22;9237;48.590;8.854;2022-09-09T02:19:01;11.60;99.90
18225;DHT22;9237;48.590;8.854;2022-09-09T02:21:30;11.70;99.90
18225;DHT22;9237;48.590;8.854;2022-09-09T02:24:03;11.80;99.90
18225;DHT22;9237;48.590;8.854;2022-09-09T02:26:34;11.70;99.90
18225;DHT22;9237;48.590;8.854;2022-09-09T02:29:07;11.70;99.90
18225;DHT22;9237;48.590;8.854;2022-09-09T02:31:37;11.60;99.90
18225;DHT22;9237;48.590;8.854;2022-09-09T02:34:05;11.50;99.90
18225;DHT22;9237;48.590;8.854;2022-09-09T02:36:35;11.50;99.90
18225;DHT22;9237;48.590;8.854;2022-09-09T02:39:07;11.50;99.90
18225;DHT22;9237;48.590;8.854;2022-09-09T02:41:37;11.50;99.90
18225;DHT22;9237;48.590;8.854;2022-09-09T02:44:10;11.50;99.90
18225;DHT22;9237;48.590;8.854;2022-09-09T02:46:49;11.30;99.90
18225;DHT22;9237;48.590;8.854;2022-09-09T02:49:24;11.30;99.90
18225;DHT22;9237;48.590;8.854;2022-09-09T02:51:59;11.30;99.90
18225;DHT22;9237;48.590;8.854;2022-09-09T02:54:29;11.30;99.90
18225;DHT22;9237;48.590;8.854;2022-09-09T02:57:01;11.40;99.90
18225;DHT22;9237;48.590;8.854;2022-09-09T02:59:32;11.40;99.90
18225;DHT22;9237;48.590;8.854;2022-09-09T03:01:59;11.30;99.90
18225;DHT22;9237;48.590;8.854;2022-09-09T03:04:26;11.20;99.90
18225;DHT22;9237;48.590;8.854;2022-09-09T03:06:53;11.10;99.90
18225;DHT22;9237;48.590;8.854;2022-09-09T03:09:20;11.10;99.90
18225;DHT22;9237;48.590;8.854;2022-09-09T03:11:47;11.10;99.90
18225;DHT22;9237;48.590;8.854;2022-09-09T03:14:14;11.00;99.90
18225;DHT22;9237;48.590;8.854;2022-09-09T03:16:43;11.00;99.90
18225;DHT22;9237;48.590;8.854;2022-09-09T03:19:10;11.00;99.90
18225;DHT22;9237;48.590;8.854;2022-09-09T03:21:36;10.90;99.90
18225;DHT22;9237;48.590;8.854;2022-09-09T03:24:04;10.90;99.90
18225;DHT22;9237;48.590;8.854;2022-09-09T03:26:32;10.90;99.90
18225;DHT22;9237;48.590;8.854;2022-09-09T03:28:59;10.90;99.90
18225;DHT22;9237;48.590;8.854;2022-09-09T03:31:26;10.80;99.90
18225;DHT22;9237;48.590;8.854;2022-09-09T03:33:57;10.80;99.90
18225;DHT22;9237;48.590;8.854;2022-09-09T03:36:24;10.90;99.90
18225;DHT22;9237;48.590;8.854;2022-09-09T03:38:51;11.00;99.90
18225;DHT22;9237;48.590;8.854;2022-09-09T03:41:19;11.10;99.90
18225;DHT22;9237;48.590;8.854;2022-09-09T03:43:49;11.10;99.90
18225;DHT22;9237;48.590;8.854;2022-09-09T03:46:16;11.10;99.90
18225;DHT22;9237;48.590;8.854;2022-09-09T03:48:43;11.20;99.90
18225;DHT22;9237;48.590;8.854;2022-09-09T03:51:11;11.10;99.90
18225;DHT22;9237;48.590;8.854;2022-09-09T03:53:38;11.00;99.90
18225;DHT22;9237;48.590;8.854;2022-09-09T03:56:06;11.00;99.90
18225;DHT22;9237;48.590;8.854;2022-09-09T03:58:33;10.90;99.90
18225;DHT22;9237;48.590;8.854;2022-09-09T04:01:02;10.90;99.90
18225;DHT22;9237;48.590;8.854;2022-09-09T04:03:30;10.90;99.90
18225;DHT22;9237;48.590;8.854;2022-09-09T04:05:59;10.90;99.90
18225;DHT22;9237;48.590;8.854;2022-09-09T04:08:27;11.00;99.90
18225;DHT22;9237;48.590;8.854;2022-09-09T04:10:57;11.00;99.90
18225;DHT22;9237;48.590;8.854;2022-09-09T04:13:24;11.00;99.90
18225;DHT22;9237;48.590;8.854;2022-09-09T04:15:53;11.10;99.90
18225;DHT22;9237;48.590;8.854;2022-09-09T04:18:20;11.10;99.90
18225;DHT22;9237;48.590;8.854;2022-09-09T04:20:48;11.10;99.90
18225;DHT22;9237;48.590;8.854;2022-09-09T04:23:15;11.10;99.90
18225;DHT22;9237;48.590;8.854;2022-09-09T04:25:46;11.10;99.90
18225;DHT22;9237;48.590;8.854;2022-09-09T04:28:13;11.20;99.90
18225;DHT22;9237;48.590;8.854;2022-09-09T04:30:40;11.20;99.90
18225;DHT22;9237;48.590;8.854;2022-09-09T04:33:08;11.30;99.90
18225;DHT22;9237;48.590;8.854;2022-09-09T04:35:35;11.40;99.90
18225;DHT22;9237;48.590;8.854;2022-09-09T04:38:03;11.40;99.90
18225;DHT22;9237;48.590;8.854;2022-09-09T04:40:30;11.50;99.90
18225;DHT22;9237;48.590;8.854;2022-09-09T04:42:59;11.40;99.90
18225;DHT22;9237;48.590;8.854;2022-09-09T04:45:26;11.40;99.90
18225;DHT22;9237;48.590;8.854;2022-09-09T04:47:54;11.40;99.90
18225;DHT22;9237;48.590;8.854;2022-09-09T04:50:21;11.50;99.90
18225;DHT22;9237;48.590;8.854;2022-09-09T04:52:48;11.50;99.90
18225;DHT22;9237;48.590;8.854;2022-09-09T04:55:14;11.60;99.90
18225;DHT22;9237;48.590;8.854;2022-09-09T04:57:41;11.60;99.90
18225;DHT22;9237;48.590;8.854;2022-09-09T05:00:11;11.80;99.90
18225;DHT22;9237;48.590;8.854;2022-09-09T05:02:38;11.80;99.90
18225;DHT22;9237;48.590;8.854;2022-09-09T05:05:06;11.80;99.90
18225;DHT22;9237;48.590;8.854;2022-09-09T05:07:33;11.80;99.90
18225;DHT22;9237;48.590;8.854;2022-09-09T05:09:59;11.80;99.90
18225;DHT22;9237;48.590;8.854;2022-09-09T05:12:26;11.80;99.90
18225;DHT22;9237;48.590;8.854;2022-09-09T05:14:54;11.80;99.90
18225;DHT22;9237;48.590;8.854;2022-09-09T05:17:23;11.80;99.90
18225;DHT22;9237;48.590;8.854;2022-09-09T05:19:49;11.80;99.90
18225;DHT22;9237;48.590;8.854;2022-09-09T05:22:19;11.80;99.90
18225;DHT22;9237;48.590;8.854;2022-09-09T05:24:46;11.80;99.90
18225;DHT22;9237;48.590;8.854;2022-09-09T05:27:16;12.00;99.90
18225;DHT22;9237;48.590;8.854;2022-09-09T05:29:43;12.00;99.90
18225;DHT22;9237;48.590;8.854;2022-09-09T05:32:10;12.20;99.90
18225;DHT22;9237;48.590;8.854;2022-09-09T05:34:40;12.30;99.90
18225;DHT22;9237;48.590;8.854;2022-09-09T05:37:07;12.30;99.90
18225;DHT22;9237;48.590;8.854;2022-09-09T05:39:34;12.50;99.90
18225;DHT22;9237;48.590;8.854;2022-09-09T05:42:02;12.50;99.90
18225;DHT22;9237;48.590;8.854;2022-09-09T05:44:30;12.60;99.90
18225;DHT22;9237;48.590;8.854;2022-09-09T05:46:57;12.70;99.90
18225;DHT22;9237;48.590;8.854;2022-09-09T05:49:24;12.80;99.90
18225;DHT22;9237;48.590;8.854;2022-09-09T05:51:56;12.90;99.90
18225;DHT22;9237;48.590;8.854;2022-09-09T05:54:23;12.90;99.90
18225;DHT22;9237;48.590;8.854;2022-09-09T05:56:50;13.00;99.90
18225;DHT22;9237;48.590;8.854;2022-09-09T05:59:19;13.10;99.90
18225;DHT22;9237;48.590;8.854;2022-09-09T06:01:46;13.20;99.90
18225;DHT22;9237;48.590;8.854;2022-09-09T06:04:13;13.30;99.90
18225;DHT22;9237;48.590;8.854;2022-09-09T06:06:39;13.40;99.90
18225;DHT22;9237;48.590;8.854;2022-09-09T06:09:09;13.50;99.90
18225;DHT22;9237;48.590;8.854;2022-09-09T06:11:38;13.60;99.90
18225;DHT22;9237;48.590;8.854;2022-09-09T06:14:05;13.60;99.90
18225;DHT22;9237;48.590;8.854;2022-09-09T06:16:33;13.70;99.90
18225;DHT22;9237;48.590;8.854;2022-09-09T06:19:01;13.80;99.90
18225;DHT22;9237;48.590;8.854;2022-09-09T06:21:29;13.90;99.90
18225;DHT22;9237;48.590;8.854;2022-09-09T06:23:59;14.00;99.90
18225;DHT22;9237;48.590;8.854;2022-09-09T06:26:29;14.00;99.90
18225;DHT22;9237;48.590;8.854;2022-09-09T06:28:56;14.10;99.90
18225;DHT22;9237;48.590;8.854;2022-09-09T06:31:25;14.20;99.90
18225;DHT22;9237;48.590;8.854;2022-09-09T06:33:53;14.20;99.90
18225;DHT22;9237;48.590;8.854;2022-09-09T06:36:22;14.30;99.90
18225;DHT22;9237;48.590;8.854;2022-09-09T06:38:49;14.30;99.90
18225;DHT22;9237;48.590;8.854;2022-09-09T06:41:18;14.30;99.90
18225;DHT22;9237;48.590;8.854;2022-09-09T06:43:46;14.30;99.90
18225;DHT22;9237;48.590;8.854;2022-09-09T06:46:15;14.40;99.90
18225;DHT22;9237;48.590;8.854;2022-09-09T06:48:43;14.50;99.90
18225;DHT22;9237;48.590;8.854;2022-09-09T06:51:12;14.60;99.90
18225;DHT22;9237;48.590;8.854;2022-09-09T06:53:40;14.70;99.90
18225;DHT22;9237;48.590;8.854;2022-09-09T06:56:18;14.80;99.90
18225;DHT22;9237;48.590;8.854;2022-09-09T06:58:47;14.90;99.90
18225;DHT22;9237;48.590;8.854;2022-09-09T07:01:15;15.10;99.90
18225;DHT22;9237;48.590;8.854;2022-09-09T07:03:45;15.10;99.90
18225;DHT22;9237;48.590;8.854;2022-09-09T07:06:14;15.20;99.90
18225;DHT22;9237;48.590;8.854;2022-09-09T07:08:42;15.30;99.90
18225;DHT22;9237;48.590;8.854;2022-09-09T07:11:10;15.30;99.90
18225;DHT22;9237;48.590;8.854;2022-09-09T07:13:37;15.40;99.90
18225;DHT22;9237;48.590;8.854;2022-09-09T07:16:08;15.50;99.90
18225;DHT22;9237;48.590;8.854;2022-09-09T07:18:35;15.70;99.90
18225;DHT22;9237;48.590;8.854;2022-09-09T07:21:03;15.90;99.90
18225;DHT22;9237;48.590;8.854;2022-09-09T07:23:30;16.20;99.90
18225;DHT22;9237;48.590;8.854;2022-09-09T07:25:57;16.50;99.90
18225;DHT22;9237;48.590;8.854;2022-09-09T07:28:25;16.60;99.90
18225;DHT22;9237;48.590;8.854;2022-09-09T07:30:53;16.70;99.90
18225;DHT22;9237;48.590;8.854;2022-09-09T07:33:22;16.80;99.90
18225;DHT22;9237;48.590;8.854;2022-09-09T07:35:49;16.70;99.90
18225;DHT22;9237;48.590;8.854;2022-09-09T07:38:16;16.70;99.90
18225;DHT22;9237;48.590;8.854;2022-09-09T07:40:44;16.80;99.90
18225;DHT22;9237;48.590;8.854;2022-09-09T07:43:11;17.00;99.90
18225;DHT22;9237;48.590;8.854;2022-09-09T07:45:38;17.50;99.90
18225;DHT22;9237;48.590;8.854;2022-09-09T07:48:06;17.70;99.90
18225;DHT22;9237;48.590;8.854;2022-09-09T07:50:34;17.80;99.90
18225;DHT22;9237;48.590;8.854;2022-09-09T07:53:01;18.40;99.90
18225;DHT22;9237;48.590;8.854;2022-09-09T07:55:28;18.40;99.90
18225;DHT22;9237;48.590;8.854;2022-09-09T07:57:55;18.50;99.90
18225;DHT22;9237;48.590;8.854;2022-09-09T08:00:22;19.10;99.90
18225;DHT22;9237;48.590;8.854;2022-09-09T08:02:49;20.30;99.90
18225;DHT22;9237;48.590;8.854;2022-09-09T08:05:17;21.30;99.90
18225;DHT22;9237;48.590;8.854;2022-09-09T08:07:45;22.20;99.90
18225;DHT22;9237;48.590;8.854;2022-09-09T08:10:12;22.30;99.90
18225;DHT22;9237;48.590;8.854;2022-09-09T08:12:40;22.50;99.90
18225;DHT22;9237;48.590;8.854;2022-09-09T08:15:07;23.00;99.90
18225;DHT22;9237;48.590;8.854;2022-09-09T08:17:34;23.40;99.90
18225;DHT22;9237;48.590;8.854;2022-09-09T08:20:03;23.40;99.90
18225;DHT22;9237;48.590;8.854;2022-09-09T08:22:32;23.50;99.90
18225;DHT22;9237;48.590;8.854;2022-09-09T08:25:01;23.60;99.90
18225;DHT22;9237;48.590;8.854;2022-09-09T08:27:27;23.90;99.90
18225;DHT22;9237;48.590;8.854;2022-09-09T08:29:55;24.30;99.90
18225;DHT22;9237;48.590;8.854;2022-09-09T08:32:22;24.60;99.90
18225;DHT22;9237;48.590;8.854;2022-09-09T08:34:49;24.90;99.90
18225;DHT22;9237;48.590;8.854;2022-09-09T08:37:16;25.50;99.90
18225;DHT22;9237;48.590;8.854;2022-09-09T08:39:44;25.70;99.90
18225;DHT22;9237;48.590;8.854;2022-09-09T08:42:29;25.30;99.90
18225;DHT22;9237;48.590;8.854;2022-09-09T08:45:12;23.50;99.90
18225;DHT22;9237;48.590;8.854;2022-09-09T08:47:50;21.50;99.90
18225;DHT22;9237;48.590;8.854;2022-09-09T08:50:23;19.70;99.90
18225;DHT22;9237;48.590;8.854;2022-09-09T08:52:56;18.30;99.90
18225;DHT22;9237;48.590;8.854;2022-09-09T08:55:34;17.60;99.90
18225;DHT22;9237;48.590;8.854;2022-09-09T08:58:08;17.10;99.90
18225;DHT22;9237;48.590;8.854;2022-09-09T09:00:44;17.10;99.90
18225;DHT22;9237;48.590;8.854;2022-09-09T09:03:21;17.30;99.90
18225;DHT22;9237;48.590;8.854;2022-09-09T09:05:59;18.00;99.90
18225;DHT22;9237;48.590;8.854;2022-09-09T09:08:33;18.00;99.90
18225;DHT22;9237;48.590;8.854;2022-09-09T09:11:00;17.50;99.90
18225;DHT22;9237;48.590;8.854;2022-09-09T09:13:34;17.20;99.90
18225;DHT22;9237;48.590;8.854;2022-09-09T09:16:13;17.00;99.90
18225;DHT22;9237;48.590;8.854;2022-09-09T09:18:49;16.80;99.90
18225;DHT22;9237;48.590;8.854;2022-09-09T09:21:32;17.00;99.90
18225;DHT22;9237;48.590;8.854;2022-09-09T09:24:01;18.30;99.90
18225;DHT22;9237;48.590;8.854;2022-09-09T09:26:32;20.00;99.90
18225;DHT22;9237;48.590;8.854;2022-09-09T09:29:09;20.60;99.90
18225;DHT22;9237;48.590;8.854;2022-09-09T09:31:37;21.30;99.90
18225;DHT22;9237;48.590;8.854;2022-09-09T09:34:04;21.70;99.90
18225;DHT22;9237;48.590;8.854;2022-09-09T09:36:39;20.80;99.90
18225;DHT22;9237;48.590;8.854;2022-09-09T09:39:07;21.20;99.90
18225;DHT22;9237;48.590;8.854;2022-09-09T09:41:37;21.00;99.90
18225;DHT22;9237;48.590;8.854;2022-09-09T09:44:22;20.70;99.90
18225;DHT22;9237;48.590;8.854;2022-09-09T09:46:50;20.50;99.90
18225;DHT22;9237;48.590;8.854;2022-09-09T09:49:17;20.30;99.90
18225;DHT22;9237;48.590;8.854;2022-09-09T09:51:44;20.00;99.90
18225;DHT22;9237;48.590;8.854;2022-09-09T09:54:17;19.50;99.90
18225;DHT22;9237;48.590;8.854;2022-09-09T09:56:46;19.70;99.90
18225;DHT22;9237;48.590;8.854;2022-09-09T09:59:23;20.60;99.90
18225;DHT22;9237;48.590;8.854;2022-09-09T10:02:17;21.90;99.90
18225;DHT22;9237;48.590;8.854;2022-09-09T10:04:44;22.40;99.90
18225;DHT22;9237;48.590;8.854;2022-09-09T10:07:12;22.20;99.90
18225;DHT22;9237;48.590;8.854;2022-09-09T10:09:40;21.40;99.90
18225;DHT22;9237;48.590;8.854;2022-09-09T10:12:18;21.10;99.90
18225;DHT22;9237;48.590;8.854;2022-09-09T10:14:54;21.00;99.90
18225;DHT22;9237;48.590;8.854;2022-09-09T10:17:32;20.60;99.90
18225;DHT22;9237;48.590;8.854;2022-09-09T10:20:18;20.30;99.90
18225;DHT22;9237;48.590;8.854;2022-09-09T10:22:51;19.80;99.90
18225;DHT22;9237;48.590;8.854;2022-09-09T10:25:29;19.70;99.90
18225;DHT22;9237;48.590;8.854;2022-09-09T10:31:11;19.50;99.90
18225;DHT22;9237;48.590;8.854;2022-09-09T10:33:50;19.40;99.90
18225;DHT22;9237;48.590;8.854;2022-09-09T10:36:20;19.60;99.90
18225;DHT22;9237;48.590;8.854;2022-09-09T10:38:50;20.30;99.90
18225;DHT22;9237;48.590;8.854;2022-09-09T10:41:26;20.30;99.90
18225;DHT22;9237;48.590;8.854;2022-09-09T10:44:26;19.90;99.90
18225;DHT22;9237;48.590;8.854;2022-09-09T10:47:15;20.90;99.90
18225;DHT22;9237;48.590;8.854;2022-09-09T10:50:06;21.10;99.90
18225;DHT22;9237;48.590;8.854;2022-09-09T10:52:38;20.50;99.90
18225;DHT22;9237;48.590;8.854;2022-09-09T10:55:11;19.30;99.90
18225;DHT22;9237;48.590;8.854;2022-09-09T10:57:42;18.20;99.90
18225;DHT22;9237;48.590;8.854;2022-09-09T11:00:16;17.40;99.90
18225;DHT22;9237;48.590;8.854;2022-09-09T11:02:50;16.70;99.90
18225;DHT22;9237;48.590;8.854;2022-09-09T11:05:20;16.40;99.90
18225;DHT22;9237;48.590;8.854;2022-09-09T11:07:50;16.10;99.90
18225;DHT22;9237;48.590;8.854;2022-09-09T11:10:25;16.00;99.90
18225;DHT22;9237;48.590;8.854;2022-09-09T11:13:00;15.60;99.90
18225;DHT22;9237;48.590;8.854;2022-09-09T11:15:34;15.50;99.90
18225;DHT22;9237;48.590;8.854;2022-09-09T11:18:04;15.40;99.90
18225;DHT22;9237;48.590;8.854;2022-09-09T11:20:33;15.40;99.90
18225;DHT22;9237;48.590;8.854;2022-09-09T11:23:04;15.40;99.90
18225;DHT22;9237;48.590;8.854;2022-09-09T11:25:35;15.50;99.90
18225;DHT22;9237;48.590;8.854;2022-09-09T11:28:20;15.50;99.90
18225;DHT22;9237;48.590;8.854;2022-09-09T11:30:59;15.70;99.90
18225;DHT22;9237;48.590;8.854;2022-09-09T11:33:48;15.80;99.90
18225;DHT22;9237;48.590;8.854;2022-09-09T11:36:43;16.00;99.90
18225;DHT22;9237;48.590;8.854;2022-09-09T11:39:36;16.30;99.90
18225;DHT22;9237;48.590;8.854;2022-09-09T11:42:16;16.60;99.90
18225;DHT22;9237;48.590;8.854;2022-09-09T11:44:44;17.00;99.90
18225;DHT22;9237;48.590;8.854;2022-09-09T11:47:20;17.20;99.90
18225;DHT22;9237;48.590;8.854;2022-09-09T11:49:49;17.50;99.90
18225;DHT22;9237;48.590;8.854;2022-09-09T11:52:22;17.50;99.90
18225;DHT22;9237;48.590;8.854;2022-09-09T11:54:51;17.70;99.90
18225;DHT22;9237;48.590;8.854;2022-09-09T11:57:24;18.00;99.90
18225;DHT22;9237;48.590;8.854;2022-09-09T11:59:52;18.80;99.90
18225;DHT22;9237;48.590;8.854;2022-09-09T12:02:23;19.30;99.90
18225;DHT22;9237;48.590;8.854;2022-09-09T12:04:58;19.50;99.90
18225;DHT22;9237;48.590;8.854;2022-09-09T12:07:33;19.70;99.90
18225;DHT22;9237;48.590;8.854;2022-09-09T12:10:05;19.20;99.90
18225;DHT22;9237;48.590;8.854;2022-09-09T12:12:34;18.80;99.90
18225;DHT22;9237;48.590;8.854;2022-09-09T12:17:50;18.40;99.90
18225;DHT22;9237;48.590;8.854;2022-09-09T12:20:21;18.50;99.90
18225;DHT22;9237;48.590;8.854;2022-09-09T12:23:11;18.60;99.90
18225;DHT22;9237;48.590;8.854;2022-09-09T12:25:53;19.10;99.90
18225;DHT22;9237;48.590;8.854;2022-09-09T12:28:24;19.30;99.90
18225;DHT22;9237;48.590;8.854;2022-09-09T12:30:58;19.40;99.90
18225;DHT22;9237;48.590;8.854;2022-09-09T12:33:33;19.60;99.90
18225;DHT22;9237;48.590;8.854;2022-09-09T12:36:03;20.40;99.90
18225;DHT22;9237;48.590;8.854;2022-09-09T12:38:34;21.20;99.90
18225;DHT22;9237;48.590;8.854;2022-09-09T12:41:02;21.10;99.90
18225;DHT22;9237;48.590;8.854;2022-09-09T12:43:29;20.80;99.90
18225;DHT22;9237;48.590;8.854;2022-09-09T12:45:58;21.00;99.90
18225;DHT22;9237;48.590;8.854;2022-09-09T12:48:33;22.30;99.90
18225;DHT22;9237;48.590;8.854;2022-09-09T12:51:18;22.50;99.90
18225;DHT22;9237;48.590;8.854;2022-09-09T12:53:46;22.90;99.90
18225;DHT22;9237;48.590;8.854;2022-09-09T12:56:19;24.30;99.90
18225;DHT22;9237;48.590;8.854;2022-09-09T12:58:48;24.50;98.70
18225;DHT22;9237;48.590;8.854;2022-09-09T13:01:21;23.90;97.70
18225;DHT22;9237;48.590;8.854;2022-09-09T13:03:48;23.90;97.60
18225;DHT22;9237;48.590;8.854;2022-09-09T13:06:21;22.90;97.60
18225;DHT22;9237;48.590;8.854;2022-09-09T13:08:49;21.80;99.40
18225;DHT22;9237;48.590;8.854;2022-09-09T13:11:20;20.90;99.90
18225;DHT22;9237;48.590;8.854;2022-09-09T13:13:53;20.40;99.90
18225;DHT22;9237;48.590;8.854;2022-09-09T13:16:23;20.50;99.90
18225;DHT22;9237;48.590;8.854;2022-09-09T13:18:51;21.80;99.90
18225;DHT22;9237;48.590;8.854;2022-09-09T13:21:29;23.00;97.50
18225;DHT22;9237;48.590;8.854;2022-09-09T13:23:57;22.40;97.40
18225;DHT22;9237;48.590;8.854;2022-09-09T13:26:28;22.10;99.20
18225;DHT22;9237;48.590;8.854;2022-09-09T13:29:08;22.50;97.40
18225;DHT22;9237;48.590;8.854;2022-09-09T13:31:42;22.90;98.10
18225;DHT22;9237;48.590;8.854;2022-09-09T13:34:13;23.10;94.30
18225;DHT22;9237;48.590;8.854;2022-09-09T13:36:46;23.60;93.70
18225;DHT22;9237;48.590;8.854;2022-09-09T13:39:16;24.00;91.70
18225;DHT22;9237;48.590;8.854;2022-09-09T13:41:45;24.70;91.40
18225;DHT22;9237;48.590;8.854;2022-09-09T13:44:18;24.80;88.80
18225;DHT22;9237;48.590;8.854;2022-09-09T13:46:46;25.10;87.20
18225;DHT22;9237;48.590;8.854;2022-09-09T13:49:21;26.10;86.20
18225;DHT22;9237;48.590;8.854;2022-09-09T13:51:50;26.60;84.90
18225;DHT22;9237;48.590;8.854;2022-09-09T13:54:20;26.30;79.20
18225;DHT22;9237;48.590;8.854;2022-09-09T13:56:48;25.70;81.10
18225;DHT22;9237;48.590;8.854;2022-09-09T13:59:17;24.90;78.50
18225;DHT22;9237;48.590;8.854;2022-09-09T14:01:45;24.70;78.40
18225;DHT22;9237;48.590;8.854;2022-09-09T14:04:12;24.90;78.90
18225;DHT22;9237;48.590;8.854;2022-09-09T14:06:39;25.40;76.90
18225;DHT22;9237;48.590;8.854;2022-09-09T14:09:10;25.40;76.20
18225;DHT22;9237;48.590;8.854;2022-09-09T14:11:37;25.30;76.20
18225;DHT22;9237;48.590;8.854;2022-09-09T14:14:06;25.30;75.80
18225;DHT22;9237;48.590;8.854;2022-09-09T14:16:33;25.00;73.60
18225;DHT22;9237;48.590;8.854;2022-09-09T14:18:59;25.10;74.60
18225;DHT22;9237;48.590;8.854;2022-09-09T14:21:27;24.90;74.90
18225;DHT22;9237;48.590;8.854;2022-09-09T14:23:54;24.20;76.50
18225;DHT22;9237;48.590;8.854;2022-09-09T14:26:24;24.40;76.10
18225;DHT22;9237;48.590;8.854;2022-09-09T14:28:52;25.30;75.40
18225;DHT22;9237;48.590;8.854;2022-09-09T14:31:18;25.50;73.80
18225;DHT22;9237;48.590;8.854;2022-09-09T14:33:46;25.60;74.70
18225;DHT22;9237;48.590;8.854;2022-09-09T14:36:13;25.50;75.00
18225;DHT22;9237;48.590;8.854;2022-09-09T14:38:40;25.40;75.30
18225;DHT22;9237;48.590;8.854;2022-09-09T14:41:10;25.30;75.20
18225;DHT22;9237;48.590;8.854;2022-09-09T14:43:39;26.00;74.00
18225;DHT22;9237;48.590;8.854;2022-09-09T14:46:06;25.50;74.30
18225;DHT22;9237;48.590;8.854;2022-09-09T14:48:33;25.10;75.30
18225;DHT22;9237;48.590;8.854;2022-09-09T14:51:05;25.10;76.90
18225;DHT22;9237;48.590;8.854;2022-09-09T14:53:32;24.40;77.60
18225;DHT22;9237;48.590;8.854;2022-09-09T14:56:04;24.50;77.90
18225;DHT22;9237;48.590;8.854;2022-09-09T14:58:31;25.10;76.40
18225;DHT22;9237;48.590;8.854;2022-09-09T15:01:04;25.00;78.80
18225;DHT22;9237;48.590;8.854;2022-09-09T15:03:31;25.70;74.60
18225;DHT22;9237;48.590;8.854;2022-09-09T15:05:57;26.10;71.40
18225;DHT22;9237;48.590;8.854;2022-09-09T15:08:24;25.60;70.00
18225;DHT22;9237;48.590;8.854;2022-09-09T15:10:59;25.90;71.70
18225;DHT22;9237;48.590;8.854;2022-09-09T15:13:26;25.70;68.60
18225;DHT22;9237;48.590;8.854;2022-09-09T15:15:53;25.30;70.30
18225;DHT22;9237;48.590;8.854;2022-09-09T15:18:22;24.80;70.30
18225;DHT22;9237;48.590;8.854;2022-09-09T15:20:48;23.70;74.50
18225;DHT22;9237;48.590;8.854;2022-09-09T15:23:15;23.00;78.20
18225;DHT22;9237;48.590;8.854;2022-09-09T15:25:58;23.20;77.20
18225;DHT22;9237;48.590;8.854;2022-09-09T15:28:25;23.20;76.00
18225;DHT22;9237;48.590;8.854;2022-09-09T15:30:53;22.40;79.90
18225;DHT22;9237;48.590;8.854;2022-09-09T15:33:22;21.80;82.00
18225;DHT22;9237;48.590;8.854;2022-09-09T15:35:49;21.20;83.50
18225;DHT22;9237;48.590;8.854;2022-09-09T15:38:16;20.80;85.80
18225;DHT22;9237;48.590;8.854;2022-09-09T15:40:44;20.70;87.30
18225;DHT22;9237;48.590;8.854;2022-09-09T15:43:12;20.50;88.00
18225;DHT22;9237;48.590;8.854;2022-09-09T15:45:39;20.40;86.60
18225;DHT22;9237;48.590;8.854;2022-09-09T15:48:06;20.00;85.50
18225;DHT22;9237;48.590;8.854;2022-09-09T15:50:34;19.90;86.40
18225;DHT22;9237;48.590;8.854;2022-09-09T15:53:01;19.90;88.10
18225;DHT22;9237;48.590;8.854;2022-09-09T15:55:28;19.90;89.20
18225;DHT22;9237;48.590;8.854;2022-09-09T15:57:55;19.90;89.10
18225;DHT22;9237;48.590;8.854;2022-09-09T16:00:23;19.80;90.10
18225;DHT22;9237;48.590;8.854;2022-09-09T16:02:50;19.70;90.50
18225;DHT22;9237;48.590;8.854;2022-09-09T16:05:17;19.70;90.20
18225;DHT22;9237;48.590;8.854;2022-09-09T16:07:45;19.70;90.90
18225;DHT22;9237;48.590;8.854;2022-09-09T16:10:13;19.70;90.90
18225;DHT22;9237;48.590;8.854;2022-09-09T16:12:40;19.70;91.20
18225;DHT22;9237;48.590;8.854;2022-09-09T16:15:07;19.70;91.50